Time;durP1;ratioP1;P1;durP2;ratioP2;P2;SDS_P1;SDS_P2;PMS_P1;PMS_P2;Temp;Humidity;BMP_temperature;BMP_pressure;BME280_temperature;BME280_humidity;BME280_pressure;Samples;Min_cycle;Max_cycle;Signal;HPM_P1;HPM_P2
2023/10/28 00:00:43;;;;;;;56.40;25.80;;;9.20;89.00;;;;;;5016109;28;20084;-64
2023/10/28 00:03:09;;;;;;;53.93;25.97;;;9.20;89.00;;;;;;5031712;28;20515;-65
2023/10/28 00:05:35;;;;;;;59.23;27.77;;;9.20;89.10;;;;;;5028746;28;20045;-64
2023/10/28 00:08:03;;;;;;;65.23;27.97;;;9.20;89.00;;;;;;5028370;28;20041;-64
2023/10/28 00:10:30;;;;;;;63.47;28.20;;;9.30;89.00;;;;;;5016805;28;20048;-64
2023/10/28 00:12:56;;;;;;;58.13;27.33;;;9.20;89.10;;;;;;5033058;28;20049;-64
2023/10/28 00:15:21;;;;;;;59.83;27.53;;;9.30;89.00;;;;;;5023885;28;20045;-64
2023/10/28 00:17:48;;;;;;;55.97;28.13;;;9.20;89.10;;;;;;5028667;28;20495;-64
2023/10/28 00:20:17;;;;;;;69.73;29.73;;;9.20;89.10;;;;;;5025882;28;20081;-64
2023/10/28 00:22:46;;;;;;;76.67;32.90;;;9.30;89.20;;;;;;5010407;28;20089;-65
2023/10/28 00:25:16;;;;;;;91.83;34.23;;;9.30;89.10;;;;;;5031528;28;20053;-65
2023/10/28 00:27:43;;;;;;;76.07;31.93;;;9.30;89.10;;;;;;5032630;28;20121;-64
2023/10/28 00:30:12;;;;;;;84.07;34.77;;;9.30;89.20;;;;;;5025863;28;20081;-64
2023/10/28 00:32:38;;;;;;;80.43;33.87;;;9.30;89.10;;;;;;5030720;28;20049;-64
2023/10/28 00:35:08;;;;;;;78.00;35.13;;;9.30;89.20;;;;;;5037164;28;20044;-64
2023/10/28 00:37:34;;;;;;;76.90;34.23;;;9.30;89.10;;;;;;5032378;28;20045;-64
2023/10/28 00:40:00;;;;;;;96.60;36.93;;;9.30;89.10;;;;;;5023772;28;20049;-64
2023/10/28 00:42:26;;;;;;;94.80;36.80;;;9.30;89.20;;;;;;5030116;28;20045;-64
2023/10/28 00:44:54;;;;;;;72.57;36.13;;;9.40;89.10;;;;;;5032798;28;20120;-64
2023/10/28 00:47:23;;;;;;;101.27;37.90;;;9.30;89.10;;;;;;5016423;28;20046;-65
2023/10/28 00:49:50;;;;;;;95.57;38.40;;;9.40;89.10;;;;;;5024712;28;20080;-65
2023/10/28 00:52:18;;;;;;;114.03;40.67;;;9.40;89.20;;;;;;5031550;28;20397;-64
2023/10/28 00:54:47;;;;;;;105.97;39.30;;;9.40;89.20;;;;;;5031889;28;20076;-64
2023/10/28 00:57:14;;;;;;;103.60;40.57;;;9.40;89.20;;;;;;5031529;28;20045;-64
2023/10/28 00:59:40;;;;;;;89.37;38.87;;;9.40;89.20;;;;;;5032467;28;20053;-64
2023/10/28 01:02:06;;;;;;;108.00;41.40;;;9.40;89.30;;;;;;5030742;28;20060;-64
2023/10/28 01:04:32;;;;;;;103.30;41.17;;;9.40;89.20;;;;;;5031501;28;20045;-64
2023/10/28 01:06:57;;;;;;;104.33;41.03;;;9.40;89.30;;;;;;5032332;28;20052;-64
2023/10/28 01:09:23;;;;;;;132.37;45.23;;;9.40;89.30;;;;;;5032030;28;20076;-64
2023/10/28 01:11:49;;;;;;;115.77;44.17;;;9.40;89.30;;;;;;5031271;28;20045;-64
2023/10/28 01:14:14;;;;;;;103.30;42.67;;;9.40;89.30;;;;;;5031785;28;20413;-64
2023/10/28 01:16:40;;;;;;;101.43;42.33;;;9.40;89.30;;;;;;5018775;28;20068;-65
2023/10/28 01:19:06;;;;;;;115.53;44.53;;;9.40;89.40;;;;;;5031763;28;20065;-64
2023/10/28 01:21:32;;;;;;;126.23;45.63;;;9.40;89.30;;;;;;5031053;28;20128;-64
2023/10/28 01:23:57;;;;;;;108.10;44.33;;;9.40;89.30;;;;;;5030797;28;20045;-64
2023/10/28 01:26:23;;;;;;;118.40;45.90;;;9.40;89.40;;;;;;5029748;28;20052;-64
2023/10/28 01:28:51;;;;;;;108.90;45.67;;;9.40;89.40;;;;;;5024561;28;20495;-64
2023/10/28 01:31:17;;;;;;;111.17;45.73;;;9.40;89.40;;;;;;5031335;28;20084;-64
2023/10/28 01:33:43;;;;;;;120.10;48.70;;;9.40;89.30;;;;;;5039821;28;20526;-64
2023/10/28 01:36:09;;;;;;;129.33;49.43;;;9.40;89.30;;;;;;5026778;28;20057;-64
2023/10/28 01:38:36;;;;;;;134.07;50.47;;;9.40;89.30;;;;;;5031471;28;20045;-65
2023/10/28 01:41:02;;;;;;;132.07;52.10;;;9.40;89.40;;;;;;5031592;28;20041;-64
2023/10/28 01:43:29;;;;;;;116.13;50.43;;;9.40;89.40;;;;;;5032298;28;20049;-65
2023/10/28 01:45:55;;;;;;;121.97;53.30;;;9.50;89.40;;;;;;5026547;28;20053;-64
2023/10/28 01:48:20;;;;;;;123.50;53.80;;;9.40;89.30;;;;;;5023846;28;20064;-64
2023/10/28 01:50:47;;;;;;;135.07;56.03;;;9.40;89.30;;;;;;5028507;28;20056;-64
2023/10/28 01:53:13;;;;;;;125.57;55.87;;;9.40;89.20;;;;;;5012467;28;20042;-64
2023/10/28 01:55:39;;;;;;;122.17;54.40;;;9.40;89.30;;;;;;5014282;28;20054;-65
2023/10/28 01:58:06;;;;;;;119.87;55.10;;;9.40;89.20;;;;;;5030239;28;20053;-65
2023/10/28 02:00:32;;;;;;;115.33;53.70;;;9.40;89.10;;;;;;5032320;28;20053;-64
2023/10/28 02:02:57;;;;;;;115.23;53.03;;;9.40;89.00;;;;;;5031166;28;20048;-64
2023/10/28 02:05:23;;;;;;;126.90;55.33;;;9.40;89.00;;;;;;5027453;28;20053;-64
2023/10/28 02:07:49;;;;;;;117.63;54.17;;;9.40;89.00;;;;;;5028496;28;20104;-64
2023/10/28 02:10:15;;;;;;;137.60;56.63;;;9.40;89.00;;;;;;5049742;28;20415;-64
2023/10/28 02:12:41;;;;;;;119.90;54.83;;;9.40;88.90;;;;;;5037444;28;20049;-64
2023/10/28 02:15:11;;;;;;;119.30;54.70;;;9.40;89.00;;;;;;5030883;28;20049;-65
2023/10/28 02:17:38;;;;;;;110.40;54.70;;;9.30;88.90;;;;;;5030372;28;20060;-64
2023/10/28 02:20:04;;;;;;;113.80;54.47;;;9.30;88.90;;;;;;5023223;28;20045;-64
2023/10/28 02:22:33;;;;;;;121.60;54.10;;;9.30;88.90;;;;;;5028165;28;20133;-64
2023/10/28 02:24:59;;;;;;;121.47;55.80;;;9.30;88.80;;;;;;5017491;28;20592;-64
2023/10/28 02:27:25;;;;;;;105.60;50.80;;;9.30;88.80;;;;;;5029169;28;20136;-65
2023/10/28 02:29:50;;;;;;;121.20;54.93;;;9.20;88.70;;;;;;5030832;28;20132;-65
2023/10/28 02:32:17;;;;;;;102.83;51.60;;;9.20;88.70;;;;;;5020949;28;20038;-65
2023/10/28 02:34:43;;;;;;;120.97;53.70;;;9.20;88.60;;;;;;5024036;28;20045;-65
2023/10/28 02:37:10;;;;;;;103.50;50.80;;;9.20;88.60;;;;;;5029310;28;20607;-65
2023/10/28 02:39:36;;;;;;;112.27;54.20;;;9.20;88.60;;;;;;5030254;28;20045;-65
2023/10/28 02:42:02;;;;;;;104.20;50.37;;;9.20;88.50;;;;;;5017913;28;20100;-65
2023/10/28 02:44:30;;;;;;;128.87;54.07;;;9.20;88.50;;;;;;5009788;28;20048;-64
2023/10/28 02:46:56;;;;;;;111.80;51.47;;;9.10;88.50;;;;;;5023091;28;20493;-64
2023/10/28 02:49:22;;;;;;;104.53;50.53;;;9.00;88.50;;;;;;5023605;28;20052;-64
2023/10/28 02:51:48;;;;;;;121.93;51.33;;;9.00;88.40;;;;;;5010135;28;20045;-64
2023/10/28 02:54:14;;;;;;;116.43;50.60;;;9.00;88.40;;;;;;5029519;28;20056;-65
2023/10/28 02:56:40;;;;;;;125.80;51.77;;;9.00;88.40;;;;;;5028769;28;20111;-64
2023/10/28 02:59:06;;;;;;;132.90;54.03;;;9.00;88.30;;;;;;5030055;28;20080;-64
2023/10/28 03:01:36;;;;;;;126.73;51.30;;;8.90;88.30;;;;;;5030102;28;20053;-64
2023/10/28 03:04:03;;;;;;;123.10;52.70;;;8.90;88.40;;;;;;5023161;28;20045;-65
2023/10/28 03:06:29;;;;;;;123.43;50.97;;;8.90;88.40;;;;;;5030005;28;20053;-64
2023/10/28 03:08:54;;;;;;;120.20;53.10;;;8.90;88.40;;;;;;5021652;28;20100;-64
2023/10/28 03:11:20;;;;;;;116.83;50.53;;;8.90;88.50;;;;;;5033545;28;20044;-64
2023/10/28 03:13:46;;;;;;;124.77;52.53;;;8.90;88.50;;;;;;5016294;28;20038;-64
2023/10/28 03:16:12;;;;;;;121.10;51.67;;;8.90;88.60;;;;;;5014427;28;20080;-64
2023/10/28 03:18:38;;;;;;;106.03;49.70;;;8.90;88.60;;;;;;5019952;28;20050;-64
2023/10/28 03:21:04;;;;;;;109.30;49.60;;;8.90;88.60;;;;;;5023557;28;20087;-64
2023/10/28 03:23:30;;;;;;;106.60;48.50;;;8.90;88.70;;;;;;5029244;28;20053;-65
2023/10/28 03:25:56;;;;;;;113.93;49.13;;;8.90;88.70;;;;;;5029582;28;20608;-64
2023/10/28 03:28:22;;;;;;;104.87;48.40;;;8.90;88.60;;;;;;5028898;28;20045;-64
2023/10/28 03:30:47;;;;;;;124.43;50.67;;;8.90;88.60;;;;;;5029650;28;20095;-64
2023/10/28 03:33:13;;;;;;;120.33;49.17;;;8.90;88.70;;;;;;5035280;28;20102;-64
2023/10/28 03:35:39;;;;;;;100.80;46.60;;;8.90;88.60;;;;;;5030607;28;20049;-64
2023/10/28 03:38:05;;;;;;;97.90;46.63;;;8.90;88.50;;;;;;5017333;28;20407;-65
2023/10/28 03:40:31;;;;;;;110.57;47.37;;;8.80;88.60;;;;;;5029110;28;20053;-64
2023/10/28 03:42:56;;;;;;;96.27;46.57;;;8.80;88.60;;;;;;5016171;28;20483;-64
2023/10/28 03:45:22;;;;;;;114.63;48.97;;;8.80;88.50;;;;;;5029093;28;20121;-64
2023/10/28 03:47:48;;;;;;;103.27;46.13;;;8.70;88.40;;;;;;5022264;28;20042;-64
2023/10/28 03:50:14;;;;;;;112.30;46.97;;;8.70;88.50;;;;;;5011267;28;20053;-65
2023/10/28 03:52:40;;;;;;;103.00;46.03;;;8.60;88.50;;;;;;5026238;28;20054;-64
2023/10/28 03:55:07;;;;;;;109.40;46.67;;;8.60;88.50;;;;;;5025673;28;20042;-65
2023/10/28 03:57:32;;;;;;;123.97;47.80;;;8.60;88.50;;;;;;5024163;28;20081;-64
2023/10/28 03:59:58;;;;;;;109.23;46.77;;;8.60;88.40;;;;;;5025560;28;20099;-64
2023/10/28 04:02:25;;;;;;;114.73;47.50;;;8.60;88.40;;;;;;5026364;28;20042;-64
2023/10/28 04:04:51;;;;;;;115.00;48.13;;;8.60;88.50;;;;;;5024080;28;20103;-65
2023/10/28 04:07:17;;;;;;;108.43;46.37;;;8.60;88.50;;;;;;5025068;28;20060;-64
2023/10/28 04:09:43;;;;;;;145.37;50.93;;;8.60;88.40;;;;;;5013345;28;20049;-65
2023/10/28 04:12:09;;;;;;;131.33;49.73;;;8.60;88.40;;;;;;5040119;28;20053;-64
2023/10/28 04:14:35;;;;;;;106.00;46.03;;;8.50;88.40;;;;;;5027812;28;20052;-64
2023/10/28 04:17:02;;;;;;;133.80;48.30;;;8.50;88.50;;;;;;5018121;28;20057;-64
2023/10/28 04:19:29;;;;;;;143.67;47.97;;;8.50;88.40;;;;;;5016806;28;20053;-64
2023/10/28 04:21:55;;;;;;;107.33;44.87;;;8.50;88.50;;;;;;5014721;28;20125;-64
2023/10/28 04:24:22;;;;;;;115.87;45.60;;;8.50;88.40;;;;;;5021779;28;20053;-64
2023/10/28 04:26:47;;;;;;;89.20;42.80;;;8.50;88.50;;;;;;5026010;28;20049;-64
2023/10/28 04:29:13;;;;;;;100.90;45.30;;;8.40;88.60;;;;;;5024283;28;20397;-64
2023/10/28 04:31:39;;;;;;;114.63;48.37;;;8.50;88.60;;;;;;5016262;28;20092;-64
2023/10/28 04:34:05;;;;;;;98.67;45.87;;;8.50;88.60;;;;;;5022119;28;20037;-64
2023/10/28 04:36:31;;;;;;;102.73;44.70;;;8.40;88.60;;;;;;5027122;28;20088;-64
2023/10/28 04:38:57;;;;;;;99.73;44.63;;;8.40;88.60;;;;;;5024520;28;20089;-65
2023/10/28 04:41:22;;;;;;;97.53;45.90;;;8.40;88.70;;;;;;5022195;28;20054;-65
2023/10/28 04:43:48;;;;;;;111.67;54.67;;;8.50;88.60;;;;;;5009160;28;20042;-64
2023/10/28 04:46:15;;;;;;;109.20;49.47;;;8.40;88.70;;;;;;5017191;28;20489;-64
2023/10/28 04:48:46;;;;;;;99.80;45.60;;;8.50;88.70;;;;;;5027722;28;20053;-64
2023/10/28 04:51:12;;;;;;;108.22;45.35;;;8.50;88.70;;;;;;5026978;28;20071;-64
2023/10/28 04:53:38;;;;;;;98.27;44.57;;;8.50;88.70;;;;;;5027412;28;20136;-65
2023/10/28 04:56:06;;;;;;;94.37;45.73;;;8.50;88.80;;;;;;5028255;28;20128;-65
2023/10/28 04:58:32;;;;;;;129.93;60.67;;;8.50;88.90;;;;;;5027575;28;20108;-65
2023/10/28 05:00:58;;;;;;;101.93;47.67;;;8.60;88.90;;;;;;5028486;28;20049;-65
2023/10/28 05:03:23;;;;;;;133.10;58.77;;;8.60;88.90;;;;;;5028271;28;20041;-64
2023/10/28 05:05:49;;;;;;;100.93;48.40;;;8.60;89.00;;;;;;5028112;28;20099;-64
2023/10/28 05:08:16;;;;;;;121.70;53.70;;;8.60;89.00;;;;;;5028636;28;20049;-65
2023/10/28 05:10:41;;;;;;;110.03;48.43;;;8.60;89.00;;;;;;5031100;28;20403;-65
2023/10/28 05:13:07;;;;;;;104.63;49.33;;;8.60;89.00;;;;;;5030483;28;20049;-65
2023/10/28 05:15:33;;;;;;;106.10;48.30;;;8.60;89.00;;;;;;5029594;28;20037;-65
2023/10/28 05:17:58;;;;;;;108.13;49.27;;;8.60;89.10;;;;;;5030776;28;20065;-65
2023/10/28 05:20:24;;;;;;;116.80;50.03;;;8.60;89.00;;;;;;5032181;28;20472;-64
2023/10/28 05:22:50;;;;;;;117.87;49.70;;;8.60;89.10;;;;;;5032088;28;20096;-65
2023/10/28 05:25:16;;;;;;;122.03;53.67;;;8.60;89.10;;;;;;5022957;28;20175;-64
2023/10/28 05:27:41;;;;;;;116.60;52.00;;;8.70;89.10;;;;;;5023086;28;20084;-65
2023/10/28 05:30:10;;;;;;;129.70;54.47;;;8.60;89.10;;;;;;5025047;28;20041;-64
2023/10/28 05:32:37;;;;;;;163.53;73.63;;;8.60;89.10;;;;;;5018751;28;20048;-65
2023/10/28 05:35:02;;;;;;;121.07;54.07;;;8.70;89.20;;;;;;5038114;28;20451;-64
2023/10/28 05:37:28;;;;;;;112.83;53.27;;;8.80;89.20;;;;;;5030079;28;20045;-65
2023/10/28 05:39:56;;;;;;;105.63;49.87;;;8.70;89.20;;;;;;5032404;28;20180;-65
2023/10/28 05:42:23;;;;;;;110.63;50.73;;;8.80;89.20;;;;;;5017155;28;20046;-65
2023/10/28 05:44:49;;;;;;;115.03;49.80;;;8.80;89.30;;;;;;5031752;28;20053;-65
2023/10/28 05:47:16;;;;;;;132.37;56.80;;;8.80;89.30;;;;;;5030518;28;20057;-65
2023/10/28 05:49:42;;;;;;;131.53;56.83;;;8.80;89.20;;;;;;5030810;28;20156;-65
2023/10/28 05:52:09;;;;;;;120.33;53.37;;;8.80;89.30;;;;;;5011613;28;20054;-65
2023/10/28 05:54:35;;;;;;;117.50;51.73;;;8.80;89.30;;;;;;5025521;28;20672;-65
2023/10/28 05:57:01;;;;;;;116.13;51.97;;;8.80;89.30;;;;;;5027468;28;20045;-64
2023/10/28 05:59:27;;;;;;;111.70;48.80;;;8.80;89.30;;;;;;5026731;28;20500;-64
2023/10/28 06:01:52;;;;;;;108.20;50.70;;;8.90;89.40;;;;;;5009955;28;20041;-65
2023/10/28 06:04:21;;;;;;;114.90;49.00;;;8.90;89.40;;;;;;5023238;28;20084;-64
2023/10/28 06:06:49;;;;;;;108.57;48.40;;;8.90;89.40;;;;;;5028754;28;20065;-64
2023/10/28 06:09:15;;;;;;;114.43;49.33;;;8.90;89.30;;;;;;5023729;28;20060;-65
2023/10/28 06:11:42;;;;;;;137.07;52.53;;;8.90;89.50;;;;;;5023807;28;20511;-65
2023/10/28 06:14:08;;;;;;;108.73;48.63;;;8.90;89.40;;;;;;5027511;28;20045;-65
2023/10/28 06:16:34;;;;;;;123.13;51.77;;;8.90;89.40;;;;;;5028006;28;20061;-65
2023/10/28 06:19:00;;;;;;;114.37;48.83;;;8.90;89.50;;;;;;5027199;28;20057;-65
2023/10/28 06:21:26;;;;;;;106.03;46.00;;;8.90;89.50;;;;;;5026839;28;20491;-64
2023/10/28 06:23:52;;;;;;;107.90;46.63;;;9.00;89.50;;;;;;5027961;28;20053;-64
2023/10/28 06:26:18;;;;;;;100.70;46.03;;;9.00;89.50;;;;;;5028027;28;20595;-64
2023/10/28 06:28:45;;;;;;;108.07;48.53;;;9.00;89.50;;;;;;5026160;28;20107;-64
2023/10/28 06:31:10;;;;;;;107.80;47.87;;;9.00;89.50;;;;;;5026172;28;20084;-64
2023/10/28 06:33:36;;;;;;;100.13;44.83;;;9.00;89.50;;;;;;5026595;28;20085;-64
2023/10/28 06:36:03;;;;;;;100.47;44.93;;;9.00;89.50;;;;;;5027987;28;20056;-65
2023/10/28 06:38:30;;;;;;;83.30;43.20;;;9.00;89.60;;;;;;5024831;28;20485;-65
2023/10/28 06:40:57;;;;;;;98.50;44.47;;;9.00;89.50;;;;;;5027287;28;20586;-65
2023/10/28 06:43:23;;;;;;;79.47;42.27;;;9.00;89.60;;;;;;5027633;28;20053;-65
2023/10/28 06:45:49;;;;;;;82.33;40.97;;;9.00;89.50;;;;;;5026443;28;20049;-65
2023/10/28 06:48:16;;;;;;;88.10;40.43;;;9.00;89.50;;;;;;5025206;28;20508;-65
2023/10/28 06:50:41;;;;;;;79.03;40.43;;;9.00;89.50;;;;;;5014369;28;20124;-65
2023/10/28 06:53:09;;;;;;;89.50;40.43;;;9.10;89.50;;;;;;5015838;28;20045;-64
2023/10/28 06:55:35;;;;;;;74.43;37.87;;;9.20;89.50;;;;;;5013881;28;20475;-65
2023/10/28 06:58:00;;;;;;;65.33;36.20;;;9.20;89.60;;;;;;5023623;28;20049;-64
2023/10/28 07:00:29;;;;;;;82.33;37.40;;;9.20;89.50;;;;;;5018791;28;20058;-65
2023/10/28 07:02:55;;;;;;;57.73;33.57;;;9.20;89.60;;;;;;5024680;28;20199;-65
2023/10/28 07:05:21;;;;;;;56.00;31.47;;;9.20;89.50;;;;;;5022580;28;20045;-65
2023/10/28 07:07:48;;;;;;;62.67;33.17;;;9.20;89.50;;;;;;5018858;28;20484;-65
2023/10/28 07:10:16;;;;;;;57.70;30.90;;;9.20;89.50;;;;;;5022631;28;20140;-64
2023/10/28 07:12:42;;;;;;;55.83;29.77;;;9.20;89.40;;;;;;5024368;28;20037;-65
2023/10/28 07:15:11;;;;;;;59.47;31.47;;;9.30;89.40;;;;;;5023157;28;20040;-64
2023/10/28 07:17:38;;;;;;;42.13;26.03;;;9.30;89.30;;;;;;5010263;28;20204;-65
2023/10/28 07:20:04;;;;;;;47.67;26.30;;;9.30;89.30;;;;;;5021264;28;20069;-65
2023/10/28 07:22:31;;;;;;;39.20;25.03;;;9.40;89.20;;;;;;5027360;28;20076;-65
2023/10/28 07:24:57;;;;;;;37.17;24.43;;;9.40;89.00;;;;;;5021151;28;20083;-65
2023/10/28 07:27:23;;;;;;;46.07;24.57;;;9.40;89.00;;;;;;5014735;28;20503;-65
2023/10/28 07:29:49;;;;;;;43.63;23.50;;;9.40;89.00;;;;;;5017509;28;20049;-65
2023/10/28 07:32:15;;;;;;;41.13;23.40;;;9.40;89.00;;;;;;5026215;28;20049;-65
2023/10/28 07:34:43;;;;;;;37.33;21.77;;;9.40;88.90;;;;;;5026359;28;20045;-65
2023/10/28 07:37:09;;;;;;;37.43;21.63;;;9.40;88.80;;;;;;5027321;28;20052;-65
2023/10/28 07:39:34;;;;;;;38.17;20.27;;;9.40;88.80;;;;;;5027012;28;20065;-65
2023/10/28 07:42:00;;;;;;;32.07;20.27;;;9.40;88.80;;;;;;5025730;28;20552;-65
2023/10/28 07:44:26;;;;;;;33.77;19.00;;;9.40;88.80;;;;;;5026576;28;20048;-65
2023/10/28 07:46:52;;;;;;;28.50;18.40;;;9.40;88.70;;;;;;5025643;28;20053;-65
2023/10/28 07:49:18;;;;;;;30.30;18.13;;;9.50;88.70;;;;;;5026929;28;20428;-65
2023/10/28 07:51:44;;;;;;;28.73;17.23;;;9.50;88.60;;;;;;5026590;28;20057;-64
2023/10/28 07:54:13;;;;;;;21.60;14.53;;;9.50;88.50;;;;;;5026695;28;20052;-65
2023/10/28 07:56:39;;;;;;;20.97;15.87;;;9.50;88.30;;;;;;5016043;28;20046;-65
2023/10/28 07:59:07;;;;;;;22.53;15.43;;;9.60;88.30;;;;;;5023022;28;20056;-65
2023/10/28 08:01:33;;;;;;;23.57;15.17;;;9.60;88.20;;;;;;5025727;28;20045;-65
2023/10/28 08:03:59;;;;;;;21.50;14.37;;;9.70;87.90;;;;;;5021968;28;20064;-65
2023/10/28 08:06:25;;;;;;;18.80;13.40;;;9.70;87.70;;;;;;5026855;28;20073;-65
2023/10/28 08:08:53;;;;;;;19.77;13.17;;;9.70;87.70;;;;;;5025827;28;20114;-65
2023/10/28 08:11:23;;;;;;;18.33;12.07;;;9.70;87.20;;;;;;5026630;28;20520;-65
2023/10/28 08:13:50;;;;;;;20.67;12.13;;;9.80;87.10;;;;;;5025332;28;20436;-65
2023/10/28 08:16:19;;;;;;;17.70;11.47;;;9.80;87.00;;;;;;5025718;28;20045;-65
2023/10/28 08:18:45;;;;;;;26.37;18.17;;;9.80;86.90;;;;;;5025529;28;20449;-65
2023/10/28 08:21:13;;;;;;;21.93;13.33;;;10.00;86.90;;;;;;5025347;28;20041;-65
2023/10/28 08:23:39;;;;;;;17.03;11.90;;;10.00;86.80;;;;;;5025697;28;20057;-65
2023/10/28 08:26:10;;;;;;;24.07;14.97;;;10.00;86.60;;;;;;5025549;28;20120;-65
2023/10/28 08:28:35;;;;;;;19.80;11.77;;;10.00;86.30;;;;;;5026012;28;20416;-65
2023/10/28 08:31:02;;;;;;;18.53;12.17;;;10.10;86.30;;;;;;5026393;28;20038;-65
2023/10/28 08:33:28;;;;;;;20.17;12.33;;;10.10;86.10;;;;;;5024315;28;20053;-65
2023/10/28 08:35:56;;;;;;;16.43;11.63;;;10.10;86.00;;;;;;5025301;28;20045;-65
2023/10/28 08:38:22;;;;;;;19.63;11.80;;;10.10;86.00;;;;;;5021431;28;20156;-65
2023/10/28 08:40:48;;;;;;;18.73;11.60;;;10.10;86.10;;;;;;5023920;28;20045;-65
2023/10/28 08:43:14;;;;;;;15.93;10.93;;;10.10;85.80;;;;;;5024149;28;20517;-65
2023/10/28 08:45:42;;;;;;;14.77;10.50;;;10.10;85.90;;;;;;5026480;28;20053;-65
2023/10/28 08:48:10;;;;;;;20.90;11.43;;;10.10;86.00;;;;;;5026062;28;20208;-65
2023/10/28 08:50:38;;;;;;;16.33;10.50;;;10.10;85.80;;;;;;5029002;28;20603;-65
2023/10/28 08:53:04;;;;;;;17.87;11.10;;;10.10;85.70;;;;;;5025437;28;20132;-65
2023/10/28 08:55:31;;;;;;;14.23;10.73;;;10.10;85.50;;;;;;5026711;28;20056;-65
2023/10/28 08:57:57;;;;;;;14.93;10.80;;;10.10;85.60;;;;;;5013271;28;20104;-65
2023/10/28 09:00:26;;;;;;;15.60;10.30;;;10.10;85.50;;;;;;5026521;28;20046;-65
2023/10/28 09:02:55;;;;;;;16.67;11.23;;;10.10;85.70;;;;;;5021275;28;20117;-65
2023/10/28 09:05:21;;;;;;;15.13;10.57;;;10.10;85.80;;;;;;5028680;28;20415;-65
2023/10/28 09:07:47;;;;;;;17.77;11.17;;;10.10;86.00;;;;;;5029369;28;20799;-65
2023/10/28 09:10:14;;;;;;;16.17;10.77;;;10.10;85.90;;;;;;5024678;28;20047;-65
2023/10/28 09:12:40;;;;;;;18.60;10.97;;;10.10;85.70;;;;;;5029015;28;20057;-65
2023/10/28 09:15:11;;;;;;;16.03;10.83;;;10.10;85.80;;;;;;5030165;28;20071;-65
2023/10/28 09:17:39;;;;;;;16.52;9.82;;;10.10;85.50;;;;;;5036517;28;20106;-65
2023/10/28 09:20:16;;;;;;;14.70;10.73;;;10.10;85.40;;;;;;5031231;28;20068;-65
2023/10/28 09:22:44;;;;;;;17.20;10.10;;;10.10;85.70;;;;;;5030253;28;20156;-65
2023/10/28 09:25:10;;;;;;;16.20;9.90;;;10.10;85.80;;;;;;5029379;28;20053;-65
2023/10/28 09:27:37;;;;;;;19.67;11.00;;;10.10;85.80;;;;;;5045254;28;20377;-65
2023/10/28 09:30:07;;;;;;;16.63;10.10;;;10.10;86.00;;;;;;5025770;28;20055;-65
2023/10/28 09:32:34;;;;;;;21.33;10.38;;;10.20;86.00;;;;;;5030422;28;20041;-65
2023/10/28 09:35:08;;;;;;;20.67;10.73;;;10.20;85.90;;;;;;5029344;28;20057;-65
2023/10/28 09:37:38;;;;;;;17.77;10.27;;;10.20;86.10;;;;;;5028672;28;20049;-65
2023/10/28 09:40:06;;;;;;;18.13;10.23;;;10.20;85.80;;;;;;5030106;28;20535;-65
2023/10/28 09:42:33;;;;;;;15.53;10.33;;;10.20;85.90;;;;;;5026361;28;20104;-65
2023/10/28 09:45:01;;;;;;;19.10;9.93;;;10.20;86.00;;;;;;5034773;28;20542;-65
2023/10/28 09:47:55;;;;;;;13.40;10.05;;;10.20;86.00;;;;;;5027745;28;20038;-65
2023/10/28 09:50:22;;;;;;;16.07;9.97;;;10.30;86.20;;;;;;5026804;28;20057;-65
2023/10/28 09:52:52;;;;;;;18.07;9.57;;;10.30;86.20;;;;;;5028111;28;20049;-65
2023/10/28 09:55:24;;;;;;;13.47;8.93;;;10.30;86.10;;;;;;5024717;28;20045;-65
2023/10/28 09:58:00;;;;;;;18.45;9.30;;;10.30;85.70;;;;;;5019920;28;20686;-65
2023/10/28 10:00:26;;;;;;;17.30;8.87;;;10.30;85.80;;;;;;5010759;28;20056;-65
2023/10/28 10:03:05;;;;;;;15.07;8.57;;;10.40;86.00;;;;;;5026014;28;20106;-65
2023/10/28 10:05:43;;;;;;;14.23;8.60;;;10.40;86.10;;;;;;5027418;28;20057;-65
2023/10/28 10:08:22;;;;;;;18.87;8.20;;;10.40;86.10;;;;;;5028106;28;20057;-65
2023/10/28 10:10:53;;;;;;;14.00;8.07;;;10.50;85.90;;;;;;5013103;28;20049;-65
2023/10/28 10:13:19;;;;;;;14.10;9.05;;;10.50;85.70;;;;;;5030361;28;20128;-65
2023/10/28 10:16:04;;;;;;;12.90;8.35;;;10.50;85.90;;;;;;5030001;28;20171;-65
2023/10/28 10:18:39;;;;;;;15.93;8.50;;;10.50;85.80;;;;;;5028673;28;20049;-65
2023/10/28 10:21:12;;;;;;;13.27;8.87;;;10.50;85.50;;;;;;5028481;28;20049;-65
2023/10/28 10:23:42;;;;;;;16.00;8.20;;;10.50;85.30;;;;;;5030392;28;20086;-65
2023/10/28 10:26:25;;;;;;;15.73;9.67;;;10.50;85.30;;;;;;5030998;28;20488;-65
2023/10/28 10:28:53;;;;;;;15.67;9.30;;;10.50;85.50;;;;;;5028746;28;20088;-65
2023/10/28 10:31:22;;;;;;;19.13;9.60;;;10.50;85.40;;;;;;5028005;28;20053;-65
2023/10/28 10:34:01;;;;;;;14.03;8.63;;;10.50;85.50;;;;;;5030994;28;20072;-65
2023/10/28 10:36:29;;;;;;;13.07;8.60;;;10.50;85.40;;;;;;5026388;28;20051;-65
2023/10/28 10:38:54;;;;;;;14.47;8.90;;;10.40;85.50;;;;;;5029974;28;20033;-65
2023/10/28 10:41:27;;;;;;;15.20;8.27;;;10.50;85.50;;;;;;5020450;28;20104;-65
2023/10/28 10:43:54;;;;;;;13.65;8.60;;;10.50;85.60;;;;;;5029653;28;20045;-65
2023/10/28 10:46:19;;;;;;;15.38;9.30;;;10.50;85.60;;;;;;5029319;28;20095;-65
2023/10/28 10:48:47;;;;;;;16.03;8.60;;;10.50;85.60;;;;;;5029595;28;20080;-65
2023/10/28 10:51:15;;;;;;;18.00;9.93;;;10.50;85.50;;;;;;5030192;28;20083;-65
2023/10/28 10:53:44;;;;;;;15.77;8.87;;;10.60;85.80;;;;;;5015298;28;20042;-66
2023/10/28 10:56:20;;;;;;;19.83;9.57;;;10.50;85.80;;;;;;5022613;28;20041;-65
2023/10/28 10:58:46;;;;;;;15.43;9.30;;;10.60;86.00;;;;;;5035457;28;20456;-65
2023/10/28 11:01:12;;;;;;;15.57;8.87;;;10.60;86.10;;;;;;5030117;28;20045;-65
2023/10/28 11:03:39;;;;;;;15.23;8.87;;;10.60;86.30;;;;;;5028018;28;20542;-65
2023/10/28 11:06:06;;;;;;;15.27;8.73;;;10.60;86.30;;;;;;5029722;28;20041;-65
2023/10/28 11:08:31;;;;;;;16.37;8.57;;;10.60;86.30;;;;;;5028735;28;20141;-65
2023/10/28 11:10:57;;;;;;;15.70;8.80;;;10.60;86.50;;;;;;5023381;28;20125;-66
2023/10/28 11:13:23;;;;;;;20.05;8.85;;;10.60;86.60;;;;;;5029623;28;20045;-65
2023/10/28 11:15:51;;;;;;;16.38;8.75;;;10.60;86.60;;;;;;5021886;28;20108;-65
2023/10/28 11:18:17;;;;;;;21.80;9.70;;;10.60;86.70;;;;;;4993646;28;20053;-66
2023/10/28 11:20:42;;;;;;;14.53;9.97;;;10.60;86.70;;;;;;5010113;28;20057;-65
2023/10/28 11:23:08;;;;;;;19.08;10.13;;;10.60;86.70;;;;;;5013035;28;20037;-65
2023/10/28 11:25:35;;;;;;;19.15;9.20;;;10.70;86.80;;;;;;5029784;28;20056;-65
2023/10/28 11:28:09;;;;;;;14.25;8.85;;;10.70;86.90;;;;;;5029186;28;20060;-65
2023/10/28 11:30:35;;;;;;;17.30;9.00;;;10.80;86.90;;;;;;5028916;28;20128;-65
2023/10/28 11:33:07;;;;;;;20.58;9.07;;;10.80;86.90;;;;;;5029593;28;20145;-65
2023/10/28 11:35:34;;;;;;;17.15;9.13;;;10.80;86.90;;;;;;5023642;28;20057;-65
2023/10/28 11:38:03;;;;;;;13.90;8.48;;;10.90;86.80;;;;;;5023068;28;20107;-65
2023/10/28 11:40:29;;;;;;;15.13;7.93;;;11.00;86.80;;;;;;5026980;28;20053;-65
2023/10/28 11:42:55;;;;;;;13.77;7.88;;;11.00;86.50;;;;;;5029513;28;20049;-65
2023/10/28 11:45:21;;;;;;;18.20;7.45;;;11.10;86.70;;;;;;5028492;28;20122;-65
2023/10/28 11:47:47;;;;;;;12.70;6.72;;;11.10;86.30;;;;;;5016280;28;20045;-65
2023/10/28 11:50:12;;;;;;;12.90;7.22;;;11.10;86.00;;;;;;5028475;28;20407;-65
2023/10/28 11:52:38;;;;;;;15.50;6.45;;;11.10;85.70;;;;;;5023042;28;20038;-65
2023/10/28 11:55:05;;;;;;;12.65;6.97;;;11.10;86.00;;;;;;5023445;28;20076;-65
2023/10/28 11:57:35;;;;;;;15.18;7.57;;;11.10;85.80;;;;;;5029222;28;20120;-65
2023/10/28 12:00:01;;;;;;;18.52;6.95;;;11.10;85.80;;;;;;5028124;28;20053;-65
2023/10/28 12:02:27;;;;;;;17.88;7.45;;;11.10;85.60;;;;;;5028143;28;20055;-65
2023/10/28 12:04:53;;;;;;;11.70;7.35;;;11.10;85.50;;;;;;5028830;28;20468;-65
2023/10/28 12:07:18;;;;;;;12.05;7.18;;;11.10;85.70;;;;;;5029716;28;20114;-65
2023/10/28 12:09:44;;;;;;;19.90;9.15;;;11.10;85.80;;;;;;5017380;28;20452;-65
2023/10/28 12:12:10;;;;;;;12.02;7.05;;;11.10;85.70;;;;;;5027839;28;20502;-65
2023/10/28 12:14:36;;;;;;;17.35;8.82;;;11.10;85.60;;;;;;5029785;28;20053;-65
2023/10/28 12:17:02;;;;;;;19.33;13.25;;;11.10;85.70;;;;;;5010917;28;20058;-65
2023/10/28 12:19:28;;;;;;;15.88;6.80;;;11.10;85.70;;;;;;5009683;28;20049;-65
2023/10/28 12:21:53;;;;;;;14.23;6.05;;;11.10;85.70;;;;;;5009462;28;20640;-65
2023/10/28 12:24:19;;;;;;;10.25;5.82;;;11.20;85.50;;;;;;5021849;28;20457;-65
2023/10/28 12:26:45;;;;;;;11.73;6.18;;;11.20;85.70;;;;;;5029196;28;20041;-65
2023/10/28 12:29:11;;;;;;;15.43;6.57;;;11.30;85.60;;;;;;5027779;28;20037;-65